Thunder radar more information blitzortung!


Radar de pluja more information rain snow radar


Visita la nostra xarxa de llocs de meteo:

Template documentation
and downloads

And another site



Extreme low temperature From: 13-12-2017 09:00 Until: 09:59 warning for: Extreme low temperature Level: Yellow info button

Pagina Historial Weather Underground text

Diari Resum Octubre 3, 2017 Unitats:  Imperial    Mètric   Tant
« Previous Dia
SegĂźent Dia »
Diari Setmana Mensual Anual Personalitzada
  Maxima: Minima: Media:
Temperatura: 80.1 °F 61.7 °F 70.7 °F
Punt de rosada: 64.6 °F 57.7 °F 61 °F
Humitat: 87 % 54 % 72 %
Wind Speed: 12.7 mph 0 mph 2.9 mph
RĂ fegues de vent: 12.7 mph - -
Vent:- - South
Pression baro: 30.2 in 30.1 in -
Precipitacions: 0 in    
Historical Graphs
 
 
Dades de taula per Octubre 3, 2017
Temps Temperatura Punt de rosada Pression baro Vent Wind Speed RĂ fegues de vent Humitat Rainfall Rate (Hourly)
00:00 62.8 °F 57.9 °F 30.2 in Calm   2 mph 84 % 0 in
00:02 66.6 °F 59.5 °F 30.2 in WSW 2.3 mph   78 % 0 in
00:07 66.4 °F 59.4 °F 30.2 in WSW 0.9 mph   78 % 0 in
00:10 62.6 °F 57.9 °F 30.2 in Calm     85 % 0 in
00:12 66.2 °F 59.2 °F 30.2 in Calm     78 % 0 in
00:20 62.4 °F 57.7 °F 30.2 in Calm     85 % 0 in
00:30 62.2 °F 57.7 °F 30.2 in Calm     85 % 0 in
00:40 62.2 °F 57.9 °F 30.2 in Calm     86 % 0 in
00:50 62.2 °F 57.9 °F 30.2 in Calm     86 % 0 in
01:00 62.1 °F 57.7 °F 30.2 in Calm     86 % 0 in
01:10 62.1 °F 58.1 °F 30.2 in Calm     87 % 0 in
01:20 61.9 °F 57.9 °F 30.2 in Calm   2 mph 87 % 0 in
01:30 61.7 °F 57.7 °F 30.2 in West 1 mph 2 mph 87 % 0 in
01:40 61.7 °F 57.7 °F 30.2 in Calm   2 mph 87 % 0 in
01:50 61.7 °F 57.7 °F 30.2 in WSW 2 mph 2 mph 87 % 0 in
02:00 62.1 °F 58.1 °F 30.2 in WSW 1 mph 2 mph 87 % 0 in
02:10 62.2 °F 58.3 °F 30.2 in Calm   1 mph 87 % 0 in
02:20 62.1 °F 58.1 °F 30.2 in WSW 1 mph 2 mph 87 % 0 in
02:30 62.1 °F 58.1 °F 30.2 in SW 1 mph 2 mph 87 % 0 in
02:40 61.9 °F 57.9 °F 30.2 in SW 1 mph 2 mph 87 % 0 in
02:50 62.1 °F 58.1 °F 30.2 in WSW 1 mph 2 mph 87 % 0 in
03:00 62.4 °F 58.5 °F 30.2 in Calm   2 mph 87 % 0 in
03:10 62.6 °F 58.6 °F 30.2 in Calm   1 mph 87 % 0 in
03:20 62.6 °F 58.5 °F 30.2 in Calm   2 mph 86 % 0 in
03:30 62.8 °F 58.5 °F 30.2 in WSW 1 mph 2 mph 86 % 0 in
03:40 63 °F 58.6 °F 30.2 in Calm   2 mph 86 % 0 in
03:50 63.1 °F 58.8 °F 30.2 in SW 2 mph 2 mph 86 % 0 in
04:00 63.1 °F 58.8 °F 30.2 in SW 2 mph 2 mph 86 % 0 in
04:10 63.5 °F 59.2 °F 30.2 in SW 1 mph 2 mph 86 % 0 in
04:20 63.9 °F 59.5 °F 30.2 in SW 1 mph 2 mph 86 % 0 in
04:30 64.2 °F 59.9 °F 30.2 in WSW 1 mph 3 mph 86 % 0 in
04:40 64.6 °F 60.1 °F 30.2 in WSW 1 mph 2 mph 85 % 0 in
04:50 64.9 °F 60.3 °F 30.2 in SW 1 mph 2 mph 85 % 0 in
05:00 65.3 °F 60.6 °F 30.2 in SW 2 mph 3 mph 85 % 0 in
05:10 65.8 °F 61 °F 30.2 in Calm   2 mph 84 % 0 in
05:20 66.2 °F 61 °F 30.2 in SW 2 mph 2 mph 83 % 0 in
05:30 66.7 °F 61.3 °F 30.2 in SW 1 mph 3 mph 83 % 0 in
05:40 67.3 °F 61.5 °F 30.2 in Calm   2 mph 82 % 0 in
05:50 68 °F 61.5 °F 30.2 in SSW 2 mph 2 mph 80 % 0 in
06:00 68.7 °F 62.2 °F 30.2 in South 1 mph 2 mph 80 % 0 in
06:10 69.4 °F 62.6 °F 30.2 in Calm   2 mph 79 % 0 in
06:20 69.1 °F 61.9 °F 30.2 in ESE 1 mph 3 mph 78 % 0 in
11:28 69.4 °F 61.9 °F 30.2 in East 2.3 mph 2.3 mph 77 % 0 in
11:29 69.4 °F 61.9 °F 30.2 in East 2.3 mph 2.3 mph 77 % 0 in
11:34 69.6 °F 62.1 °F 30.2 in NNE 1.6 mph 1.6 mph 77 % 0 in
11:39 70.3 °F 62.4 °F 30.2 in North 1.6 mph 1.6 mph 76 % 0 in
11:44 71.4 °F 63.5 °F 30.2 in NE 3.5 mph 3.5 mph 76 % 0 in
11:49 71.4 °F 63.1 °F 30.2 in East 2.4 mph 2.4 mph 75 % 0 in
11:54 71.8 °F 63 °F 30.2 in ENE 3.5 mph 3.5 mph 74 % 0 in
11:59 72.1 °F 63 °F 30.2 in ENE 3.5 mph 3.5 mph 73 % 0 in
12:04 72.3 °F 63.1 °F 30.2 in ENE 2.4 mph 2.4 mph 73 % 0 in
12:09 72 °F 62.8 °F 30.2 in ENE 3.5 mph 3.5 mph 73 % 0 in
12:14 72 °F 62.4 °F 30.2 in NE 3.8 mph 3.8 mph 72 % 0 in
12:19 72.5 °F 63 °F 30.2 in WNW 2.3 mph 2.3 mph 72 % 0 in
12:24 72.5 °F 62.6 °F 30.2 in NNE 5.8 mph 5.8 mph 71 % 0 in
12:29 73.6 °F 64 °F 30.2 in North 2.3 mph 2.3 mph 72 % 0 in
12:34 74.3 °F 63.9 °F 30.2 in NNE 3.5 mph 3.5 mph 70 % 0 in
12:39 75 °F 64.6 °F 30.2 in NNE 3.6 mph 3.6 mph 70 % 0 in
12:44 74.8 °F 64 °F 30.2 in WNW 2.3 mph 2.3 mph 69 % 0 in
12:49 75.7 °F 64.4 °F 30.2 in West 2.4 mph 2.4 mph 68 % 0 in
12:54 75.9 °F 63.7 °F 30.2 in NE 2.3 mph 2.3 mph 66 % 0 in
12:59 75.9 °F 63.7 °F 30.2 in NE 3.5 mph 3.5 mph 66 % 0 in
13:04 75.7 °F 63.1 °F 30.2 in NE 4.6 mph 4.6 mph 65 % 0 in
13:14 75.4 °F 61.9 °F 30.2 in NNE 5.8 mph 5.8 mph 63 % 0 in
13:19 76.3 °F 63.1 °F 30.2 in NE 3.5 mph 3.5 mph 64 % 0 in
13:24 76.1 °F 62.1 °F 30.2 in East 4.6 mph 4.6 mph 62 % 0 in
13:29 76.1 °F 62.1 °F 30.2 in NE 5.8 mph 5.8 mph 62 % 0 in
13:34 76.6 °F 62.2 °F 30.2 in ENE 3.8 mph 3.8 mph 61 % 0 in
13:39 76.3 °F 62.2 °F 30.2 in ENE 5.8 mph 5.8 mph 62 % 0 in
13:44 76.3 °F 62.2 °F 30.2 in NE 4.6 mph 4.6 mph 62 % 0 in
13:49 76.3 °F 62.2 °F 30.2 in ENE 5.8 mph 5.8 mph 62 % 0 in
13:54 76.5 °F 62.1 °F 30.2 in NNE 5.8 mph 5.8 mph 61 % 0 in
13:59 76.5 °F 62.1 °F 30.2 in NNE 4.6 mph 4.6 mph 61 % 0 in
14:01 76.6 °F 62.2 °F 30.2 in NE 6 mph 6 mph 61 % 0 in
14:06 76.6 °F 62.2 °F 30.2 in NNW 3.3 mph 3.3 mph 61 % 0 in
14:11 77.2 °F 62.2 °F 30.2 in NE 2.4 mph 2.4 mph 60 % 0 in
14:16 77.5 °F 62.6 °F 30.2 in NNE 4.7 mph 4.7 mph 60 % 0 in
14:21 76.8 °F 61.9 °F 30.2 in NE 5.8 mph 5.8 mph 60 % 0 in
14:26 76.6 °F 61.7 °F 30.2 in South 3.5 mph 3.5 mph 60 % 0 in
14:31 77.9 °F 62.4 °F 30.2 in NNE 5.9 mph 5.9 mph 59 % 0 in
14:36 78.3 °F 62.2 °F 30.2 in ESE 4.6 mph 4.6 mph 58 % 0 in
14:41 77.7 °F 61.9 °F 30.2 in NNE 5.8 mph 5.8 mph 58 % 0 in
14:46 77.2 °F 61.3 °F 30.2 in NNE 4.9 mph 4.9 mph 58 % 0 in
14:51 76.8 °F 61.3 °F 30.2 in NE 5.8 mph 5.8 mph 59 % 0 in
14:56 77 °F 60.6 °F 30.2 in ESE 4.6 mph 4.6 mph 57 % 0 in
15:01 77.2 °F 60.8 °F 30.2 in NNE 3.5 mph 3.5 mph 57 % 0 in
15:06 77.2 °F 59.7 °F 30.2 in WSW 5.8 mph 5.8 mph 55 % 0 in
15:08 78.1 °F 61.5 °F 30.2 in NE 3.5 mph 3.5 mph 57 % 0 in
15:13 78.3 °F 61.3 °F 30.2 in ENE 4.6 mph 4.6 mph 56 % 0 in
15:18 78.8 °F 61.3 °F 30.1 in ENE 4.6 mph 4.6 mph 55 % 0 in
15:23 78.8 °F 61.9 °F 30.1 in ESE 6.2 mph 6.2 mph 56 % 0 in
15:28 79.7 °F 62.1 °F 30.1 in East 5.4 mph 5.4 mph 55 % 0 in
15:33 80.1 °F 61.9 °F 30.2 in SSW 3.5 mph 3.5 mph 54 % 0 in
15:38 79.5 °F 61.3 °F 30.2 in ESE 5.8 mph 5.8 mph 54 % 0 in
15:43 79.5 °F 61.3 °F 30.2 in SE 10.4 mph 10.4 mph 54 % 0 in
15:48 79.2 °F 61.2 °F 30.1 in ENE 5.8 mph 5.8 mph 54 % 0 in
15:53 78.1 °F 60.6 °F 30.1 in ESE 9.2 mph 9.2 mph 55 % 0 in
15:58 77.4 °F 60.4 °F 30.1 in SSE 10.7 mph 10.7 mph 56 % 0 in
16:03 77.2 °F 60.8 °F 30.2 in East 7.1 mph 7.1 mph 57 % 0 in
16:08 76.6 °F 61.2 °F 30.2 in ESE 8.5 mph 8.5 mph 59 % 0 in
16:13 76.3 °F 61 °F 30.2 in East 8.1 mph 8.1 mph 59 % 0 in
16:18 76.3 °F 61.3 °F 30.2 in East 7.6 mph 7.6 mph 60 % 0 in
16:23 75.9 °F 61 °F 30.2 in East 12.7 mph 12.7 mph 60 % 0 in
16:28 75.9 °F 61.5 °F 30.2 in ESE 8.1 mph 8.1 mph 61 % 0 in
16:33 75.7 °F 61.3 °F 30.1 in East 6.9 mph 6.9 mph 61 % 0 in
16:38 75.7 °F 61.3 °F 30.1 in ESE 5.8 mph 5.8 mph 61 % 0 in
16:43 75.9 °F 61.5 °F 30.1 in ESE 3.8 mph 3.8 mph 61 % 0 in
16:48 75.9 °F 61.5 °F 30.1 in East 5.8 mph 5.8 mph 61 % 0 in
16:53 76.3 °F 61.9 °F 30.1 in East 5.8 mph 5.8 mph 61 % 0 in
16:58 75.9 °F 61.5 °F 30.1 in SE 9.2 mph 9.2 mph 61 % 0 in
17:03 75.9 °F 61.5 °F 30.1 in NNE 5.6 mph 5.6 mph 61 % 0 in
17:08 75.9 °F 61.5 °F 30.1 in ESE 5.8 mph 5.8 mph 61 % 0 in
17:13 75.6 °F 61.2 °F 30.1 in South 5.8 mph 5.8 mph 61 % 0 in
17:18 75.6 °F 61.2 °F 30.1 in SSE 3.5 mph 3.6 mph 61 % 0 in
17:23 75.4 °F 61 °F 30.1 in East 4.6 mph 4.6 mph 61 % 0 in
17:28 75.2 °F 60.8 °F 30.1 in SSW 2.4 mph 2.4 mph 61 % 0 in
17:33 75 °F 60.6 °F 30.2 in SE 4.6 mph 4.6 mph 61 % 0 in
17:38 75 °F 61.2 °F 30.2 in South 1.6 mph 1.6 mph 62 % 0 in
17:43 75 °F 61.2 °F 30.2 in SSE 5.8 mph 5.8 mph 62 % 0 in
17:48 75 °F 61.2 °F 30.2 in South 3.5 mph 3.5 mph 62 % 0 in
17:53 75.2 °F 60.8 °F 30.2 in ESE 5.8 mph 5.8 mph 61 % 0 in
17:54 75.2 °F 60.8 °F 30.2 in SSE 5.8 mph 5.8 mph 61 % 0 in
17:59 75.7 °F 61.9 °F 30.2 in ESE 2.6 mph 2.6 mph 62 % 0 in
18:04 76.1 °F 61.7 °F 30.2 in SSE 2.3 mph 2.3 mph 61 % 0 in
18:19 75.9 °F 61.5 °F 30.2 in East 2.6 mph 2.6 mph 61 % 0 in
18:24 75.6 °F 61.2 °F 30.2 in South 3.5 mph 3.5 mph 61 % 0 in
18:29 75.4 °F 61 °F 30.2 in ESE 4.6 mph 4.6 mph 61 % 0 in
18:34 75.9 °F 62.1 °F 30.2 in SW 4.6 mph 4.6 mph 62 % 0 in
18:39 76.3 °F 62.2 °F 30.2 in SW 4.6 mph 4.6 mph 62 % 0 in
18:49 75.9 °F 62.4 °F 30.2 in SSW 4.6 mph 4.6 mph 63 % 0 in
18:54 75.6 °F 62.1 °F 30.2 in WSW 4 mph 4 mph 63 % 0 in
18:59 75 °F 62.1 °F 30.2 in West 5.8 mph 5.8 mph 64 % 0 in
19:04 74.8 °F 61.9 °F 30.2 in SSW 2.3 mph 2.3 mph 64 % 0 in
19:09 74.3 °F 61.3 °F 30.2 in South 6.9 mph 6.9 mph 64 % 0 in
19:14 73.9 °F 61 °F 30.2 in SW 5.9 mph 5.9 mph 64 % 0 in
19:19 73.8 °F 60.8 °F 30.2 in WSW 3.5 mph 3.5 mph 64 % 0 in
19:24 73.4 °F 61 °F 30.2 in WSW 2.4 mph 2.4 mph 65 % 0 in
19:25 66 °F 60.6 °F 30.2 in Calm   1 mph 83 % 0 in
19:29 73 °F 60.6 °F 30.2 in SW 4.6 mph 4.6 mph 65 % 0 in
19:34 72.9 °F 60.4 °F 30.2 in SW 2.4 mph 2.6 mph 65 % 0 in
19:35 65.8 °F 61 °F 30.2 in Calm     84 % 0 in
19:39 72.5 °F 60.4 °F 30.2 in WSW 3.5 mph 3.5 mph 66 % 0 in
19:44 72.3 °F 60.3 °F 30.2 in SW 2.6 mph 2.6 mph 66 % 0 in
19:45 65.7 °F 60.6 °F 30.2 in Calm     84 % 0 in
19:49 72.1 °F 60.6 °F 30.2 in WSW 2.3 mph 2.3 mph 67 % 0 in
19:54 72.1 °F 60.6 °F 30.2 in SW 2.3 mph 2.3 mph 67 % 0 in
19:55 65.7 °F 60.6 °F 30.2 in Calm     84 % 0 in
19:59 72 °F 60.4 °F 30.2 in SSW 3.8 mph 3.8 mph 67 % 0 in
20:04 72 °F 60.8 °F 30.2 in WSW 1.6 mph   68 % 0 in
20:05 65.5 °F 60.8 °F 30.2 in Calm     85 % 0 in
20:09 71.8 °F 60.6 °F 30.2 in WSW 2.3 mph 2.3 mph 68 % 0 in
20:14 71.4 °F 60.6 °F 30.2 in SW 2.9 mph 2.9 mph 69 % 0 in
20:15 65.3 °F 60.6 °F 30.2 in Calm     85 % 0 in
20:19 71.2 °F 61 °F 30.2 in WSW 3.5 mph 3.5 mph 70 % 0 in
20:24 71.1 °F 60.8 °F 30.2 in WSW 1.4 mph 1.4 mph 70 % 0 in
20:25 65.1 °F 60.8 °F 30.2 in Calm     86 % 0 in
20:29 70.9 °F 60.6 °F 30.2 in West 2.3 mph 2.3 mph 70 % 0 in
20:34 70.7 °F 60.4 °F 30.2 in WSW 2.3 mph 2.3 mph 70 % 0 in
20:35 64.6 °F 60.1 °F 30.2 in SW 1 mph 2 mph 85 % 0 in
20:39 70.7 °F 60.8 °F 30.2 in SW 2.3 mph 2.3 mph 71 % 0 in
20:44 70.5 °F 60.6 °F 30.2 in WSW 1.2 mph   71 % 0 in
20:45 64.8 °F 60.1 °F 30.2 in WSW 1 mph 3 mph 85 % 0 in
20:49 70.3 °F 60.4 °F 30.2 in SW 0.9 mph   71 % 0 in
20:54 70.2 °F 60.3 °F 30.2 in WSW 3.5 mph 3.5 mph 71 % 0 in
20:55 64.9 °F 60.6 °F 30.2 in Calm   1 mph 86 % 0 in
20:59 70.2 °F 60.6 °F 30.2 in SW 2.3 mph 2.3 mph 72 % 0 in
21:04 69.8 °F 60.4 °F 30.2 in SW 2.3 mph 2.3 mph 72 % 0 in
21:05 64.9 °F 60.6 °F 30.2 in Calm     86 % 0 in
21:09 69.6 °F 60.3 °F 30.2 in WSW 2.3 mph 2.3 mph 72 % 0 in
21:14 69.6 °F 60.6 °F 30.2 in West 2.3 mph 2.3 mph 73 % 0 in
21:15 64.8 °F 60.4 °F 30.2 in Calm     86 % 0 in
21:19 69.4 °F 60.4 °F 30.2 in SW 2.3 mph 2.3 mph 73 % 0 in
21:24 69.3 °F 60.6 °F 30.2 in SW 2.3 mph 2.3 mph 74 % 0 in
21:25 64.6 °F 60.3 °F 30.2 in West 1 mph 1 mph 86 % 0 in
21:29 69.1 °F 60.4 °F 30.2 in WSW 2.3 mph 2.3 mph 74 % 0 in
21:34 69.1 °F 60.8 °F 30.2 in WSW 2.3 mph   75 % 0 in
21:35 64.6 °F 60.1 °F 30.2 in West 1 mph 2 mph 85 % 0 in
21:39 68.9 °F 60.6 °F 30.2 in SW 2.3 mph   75 % 0 in
21:44 68.9 °F 60.6 °F 30.2 in West 1.4 mph 1.6 mph 75 % 0 in
21:45 64.6 °F 60.1 °F 30.2 in West 1 mph 2 mph 85 % 0 in
21:49 68.9 °F 60.6 °F 30.2 in WSW 2.2 mph 2.2 mph 75 % 0 in
21:54 68.7 °F 60.8 °F 30.2 in WSW 3.5 mph 3.5 mph 76 % 0 in
21:55 64.6 °F 60.1 °F 30.2 in Calm     85 % 0 in
21:59 68.5 °F 60.6 °F 30.2 in SW 2.3 mph 2.3 mph 76 % 0 in
22:04 68.4 °F 60.4 °F 30.2 in SW 2.4 mph 2.4 mph 76 % 0 in
22:05 64.6 °F 59.5 °F 30.2 in NW 1 mph 2 mph 84 % 0 in
22:09 68.4 °F 61 °F 30.2 in West 2.3 mph 2.3 mph 77 % 0 in
22:14 68.4 °F 61 °F 30.2 in WSW 2.3 mph 2.3 mph 77 % 0 in
22:19 68.2 °F 60.6 °F 30.2 in WSW 2.3 mph 2.3 mph 77 % 0 in
22:24 68 °F 61 °F 30.2 in West 1.2 mph 1.2 mph 78 % 0 in
22:29 68 °F 61 °F 30.2 in WSW 2.3 mph 2.3 mph 78 % 0 in
22:34 68 °F 61 °F 30.2 in WSW 2.3 mph 2.3 mph 78 % 0 in
22:35 64.2 °F 59.5 °F 30.2 in Calm     85 % 0 in
22:39 67.8 °F 61.2 °F 30.2 in WSW 2.3 mph   79 % 0 in
22:45 64 °F 59.4 °F 30.2 in Calm     85 % 0 in
22:49 67.6 °F 61.2 °F 30.2 in WSW 1.2 mph 1.2 mph 80 % 0 in
22:54 67.6 °F 61.2 °F 30.2 in West 1.6 mph 1.6 mph 80 % 0 in
22:55 67.6 °F 61.2 °F 30.2 in West 1.4 mph 1.4 mph 80 % 0 in
23:00 67.6 °F 61.2 °F 30.2 in WSW 2.3 mph   80 % 0 in
23:05 67.6 °F 61.2 °F 30.2 in WSW 2.3 mph 2.3 mph 80 % 0 in
23:10 67.5 °F 61.3 °F 30.2 in Calm     81 % 0 in
23:15 67.5 °F 61.3 °F 30.2 in WSW 1.2 mph 1.2 mph 81 % 0 in
23:20 67.3 °F 61.2 °F 30.2 in SW 2.2 mph   81 % 0 in
23:25 67.3 °F 61.2 °F 30.2 in WSW 1.6 mph 1.6 mph 81 % 0 in
23:30 67.3 °F 61.2 °F 30.2 in WSW 1.2 mph   81 % 0 in
23:35 67.1 °F 61.2 °F 30.2 in West 2 mph   81 % 0 in
23:40 67.1 °F 61.2 °F 30.2 in West 2.3 mph 2.3 mph 81 % 0 in
23:45 67.1 °F 61.2 °F 30.2 in WSW 1.2 mph 1.4 mph 81 % 0 in
23:50 66.9 °F 61 °F 30.2 in West 2.3 mph 2.3 mph 81 % 0 in
23:55 66.7 °F 61.2 °F 30.2 in SW 1.2 mph 1.2 mph 82 % 0 in
Meteo Sesrovires
Elogis d' Weather Underground - 3.5 mb

Guio original per  Jim McMurry - jmcmurry@mwt.net Adaptat per a la plantilla per  Wim van der Kuil - Leuven-Template.eu

Trobareu la nostra informacio del temps tambe a:

Weather Underground

AWEKAS